Time;durP1;ratioP1;P1;durP2;ratioP2;P2;SDS_P1;SDS_P2;PMS_P1;PMS_P2;Temp;Humidity;BMP_temperature;BMP_pressure;BME280_temperature;BME280_humidity;BME280_pressure;Samples;Min_cycle;Max_cycle;Signal;HPM_P1;HPM_P2
2023/03/12 00:00:12;;;;;;;4.18;1.98;;;;;;;-1.57;87.50;100566.75;7393935;19;20073;-67
2023/03/12 00:02:40;;;;;;;4.78;1.88;;;;;;;-1.55;87.51;100567.66;7393898;19;20018;-67
2023/03/12 00:05:09;;;;;;;4.97;2.17;;;;;;;-1.55;87.50;100573.66;7394241;19;20070;-67
2023/03/12 00:07:38;;;;;;;4.72;1.83;;;;;;;-1.54;87.75;100575.41;7394011;19;20082;-67
2023/03/12 00:10:10;;;;;;;7.47;2.53;;;;;;;-1.54;88.68;100574.53;7393774;19;20023;-68
2023/03/12 00:12:39;;;;;;;3.47;1.95;;;;;;;-1.53;88.11;100573.69;7393199;19;20027;-67
2023/03/12 00:15:09;;;;;;;3.50;1.85;;;;;;;-1.53;88.78;100574.59;7393793;19;20545;-68
2023/03/12 00:17:38;;;;;;;5.55;2.25;;;;;;;-1.52;88.26;100575.44;7394071;19;20014;-67
2023/03/12 00:20:08;;;;;;;6.10;1.98;;;;;;;-1.52;88.44;100571.16;7393929;19;20027;-67
2023/03/12 00:22:36;;;;;;;6.07;2.90;;;;;;;-1.51;88.37;100567.75;7393221;19;20018;-67
2023/03/12 00:25:16;;;;;;;6.15;2.72;;;;;;;-1.51;88.35;100572.91;7393445;19;20541;-68
2023/03/12 00:27:45;;;;;;;4.15;2.15;;;;;;;-1.53;89.11;100563.41;7393994;19;20094;-67
2023/03/12 00:30:14;;;;;;;6.45;2.17;;;;;;;-1.51;86.02;100567.75;7391354;19;20493;-67
2023/03/12 00:32:43;;;;;;;2.20;1.67;;;;;;;-1.50;87.56;100566.94;7392386;19;20011;-68
2023/03/12 00:35:12;;;;;;;2.42;1.75;;;;;;;-1.52;87.87;100568.59;7400998;19;20032;-67
2023/03/12 00:37:41;;;;;;;6.65;2.63;;;;;;;-1.51;87.95;100561.75;7400962;19;20278;-68
2023/03/12 00:40:11;;;;;;;4.55;2.72;;;;;;;-1.50;86.27;100569.50;7400460;19;20082;-68
2023/03/12 00:42:42;;;;;;;9.70;2.15;;;;;;;-1.49;86.17;100575.53;7400385;19;20018;-67
2023/03/12 00:45:11;;;;;;;3.78;1.83;;;;;;;-1.49;87.47;100568.69;7399011;19;20073;-68
2023/03/12 00:47:40;;;;;;;3.65;2.25;;;;;;;-1.46;87.23;100577.31;7400650;19;20082;-68
2023/03/12 00:50:09;;;;;;;3.08;1.90;;;;;;;-1.46;87.33;100575.59;7400057;19;20022;-68
2023/03/12 00:52:38;;;;;;;7.72;2.67;;;;;;;-1.48;84.42;100575.56;7398398;19;20371;-67
2023/03/12 00:55:07;;;;;;;5.05;2.60;;;;;;;-1.46;85.35;100575.59;7399896;19;20086;-67
2023/03/12 00:57:36;;;;;;;6.97;2.40;;;;;;;-1.46;83.52;100580.75;7400271;19;20022;-67
2023/03/12 01:00:09;;;;;;;3.22;2.17;;;;;;;-1.44;85.15;100585.94;7400089;19;20090;-67
2023/03/12 01:02:38;;;;;;;6.13;1.85;;;;;;;-1.42;86.01;100576.56;7399610;19;20514;-68
2023/03/12 01:05:08;;;;;;;3.75;2.42;;;;;;;-1.45;87.61;100566.16;7397161;19;20504;-67
2023/03/12 01:07:37;;;;;;;5.93;2.67;;;;;;;-1.44;87.74;100571.38;7399904;19;20031;-67
2023/03/12 01:10:07;;;;;;;4.35;2.00;;;;;;;-1.45;86.88;100571.31;7399900;19;20018;-67
2023/03/12 01:12:35;;;;;;;4.55;1.65;;;;;;;-1.44;86.69;100579.09;7398452;19;20418;-68
2023/03/12 01:15:08;;;;;;;7.95;2.63;;;;;;;-1.45;85.22;100581.59;7399599;19;20090;-67
2023/03/12 01:17:37;;;;;;;4.75;2.10;;;;;;;-1.45;87.31;100576.47;7400127;19;20094;-68
2023/03/12 01:20:07;;;;;;;4.13;1.73;;;;;;;-1.45;86.52;100579.03;7399273;19;20041;-67
2023/03/12 01:22:36;;;;;;;4.55;2.08;;;;;;;-1.46;88.04;100578.19;7399218;19;20014;-67
2023/03/12 01:25:05;;;;;;;5.97;1.92;;;;;;;-1.47;86.42;100584.16;7399439;19;20011;-67
2023/03/12 01:27:33;;;;;;;5.88;2.40;;;;;;;-1.48;86.08;100587.53;7399291;19;20018;-67
2023/03/12 01:30:02;;;;;;;7.22;2.30;;;;;;;-1.48;84.81;100587.53;7398863;19;20595;-67
2023/03/12 01:32:33;;;;;;;6.00;2.20;;;;;;;-1.49;86.68;100589.25;7398064;19;20082;-68
2023/03/12 01:35:01;;;;;;;3.35;2.10;;;;;;;-1.48;86.00;100582.41;7398737;19;20644;-67
2023/03/12 01:37:30;;;;;;;4.85;2.30;;;;;;;-1.50;85.88;100579.78;7398605;19;20021;-68
2023/03/12 01:39:59;;;;;;;2.67;1.75;;;;;;;-1.48;87.12;100582.41;7398513;19;20086;-67
2023/03/12 01:42:27;;;;;;;6.20;1.73;;;;;;;-1.55;87.00;100571.09;7398290;19;20090;-68
2023/03/12 01:45:12;;;;;;;3.40;1.88;;;;;;;-1.54;84.15;100578.00;7394687;19;20086;-68
2023/03/12 01:47:43;;;;;;;3.30;1.75;;;;;;;-1.52;86.69;100589.16;7399085;19;20014;-67
2023/03/12 01:50:12;;;;;;;4.85;2.00;;;;;;;-1.54;84.98;100580.56;7398721;19;20021;-67
2023/03/12 01:52:41;;;;;;;5.85;2.33;;;;;;;-1.56;86.69;100584.78;7397112;19;20549;-67
2023/03/12 01:55:13;;;;;;;3.60;1.88;;;;;;;-1.58;85.79;100578.75;7398406;19;20078;-67
2023/03/12 01:57:47;;;;;;;6.53;2.03;;;;;;;-1.59;85.63;100581.25;7398759;19;20010;-67
2023/03/12 02:00:20;;;;;;;3.95;2.00;;;;;;;-1.58;87.10;100585.59;7396444;19;20022;-67
2023/03/12 02:02:52;;;;;;;3.58;2.17;;;;;;;-1.59;87.76;100583.84;7397698;19;20378;-67
2023/03/12 02:05:27;;;;;;;4.85;2.55;;;;;;;-1.62;87.74;100586.34;7398644;19;20022;-67
2023/03/12 02:07:56;;;;;;;5.32;2.08;;;;;;;-1.65;86.56;100580.28;7396223;19;20022;-67
2023/03/12 02:10:26;;;;;;;4.68;1.60;;;;;;;-1.66;86.18;100593.09;7397973;19;20024;-65
2023/03/12 02:15:22;;;;;;;5.68;2.10;;;;;;;-1.68;86.54;100594.75;7392592;19;20014;-70
2023/03/12 02:17:53;;;;;;;7.60;2.17;;;;;;;-1.71;86.42;100597.28;7398073;19;20014;-70
2023/03/12 02:20:27;;;;;;;6.68;2.13;;;;;;;-1.74;85.95;100592.06;7395697;19;20507;-65
2023/03/12 02:23:02;;;;;;;4.65;2.92;;;;;;;-1.73;86.43;100604.06;7397768;19;20011;-71
2023/03/12 02:25:39;;;;;;;4.50;1.80;;;;;;;-1.74;87.24;100610.06;7398441;19;20019;-70
2023/03/12 02:28:10;;;;;;;3.60;1.90;;;;;;;-1.74;87.51;100615.22;7396364;19;20078;-69
2023/03/12 02:30:41;;;;;;;7.70;2.33;;;;;;;-1.75;88.03;100610.88;7395824;19;20437;-70
2023/03/12 02:33:12;;;;;;;2.35;1.90;;;;;;;-1.76;86.83;100622.84;7396327;19;20021;-71
2023/03/12 02:35:42;;;;;;;4.93;2.10;;;;;;;-1.80;85.64;100618.47;7396409;19;20074;-71
2023/03/12 02:38:33;;;;;;;4.53;1.90;;;;;;;-1.77;86.89;100627.97;7396930;19;20082;-71
2023/03/12 02:41:11;;;;;;;6.32;1.98;;;;;;;-1.77;88.32;100625.41;7396216;19;20070;-71
2023/03/12 02:43:41;;;;;;;5.95;2.08;;;;;;;-1.78;88.17;100628.78;7396656;19;20098;-71
2023/03/12 02:46:10;;;;;;;8.52;2.45;;;;;;;-1.79;87.63;100633.09;7397438;19;20139;-71
2023/03/12 02:48:38;;;;;;;6.78;2.20;;;;;;;-1.81;87.74;100627.00;7397212;19;20082;-71
2023/03/12 02:51:07;;;;;;;4.82;1.88;;;;;;;-1.80;85.73;100633.91;7397445;19;20741;-71
2023/03/12 02:53:35;;;;;;;3.78;2.17;;;;;;;-1.80;86.91;100637.34;7395395;19;20078;-71
2023/03/12 02:56:07;;;;;;;5.72;2.05;;;;;;;-1.78;87.08;100639.09;7395776;19;20078;-71
2023/03/12 02:58:36;;;;;;;6.15;2.05;;;;;;;-1.78;87.24;100644.22;7397732;19;20089;-70
2023/03/12 03:01:04;;;;;;;7.72;2.28;;;;;;;-1.80;87.21;100636.47;7395105;19;20015;-71
2023/03/12 03:03:33;;;;;;;3.10;1.75;;;;;;;-1.80;86.70;100647.63;7394878;19;20018;-70
2023/03/12 03:06:02;;;;;;;5.47;2.05;;;;;;;-1.80;86.65;100650.19;7396538;19;20609;-71
2023/03/12 03:08:30;;;;;;;5.82;2.00;;;;;;;-1.82;84.53;100654.44;7396729;19;20090;-71
2023/03/12 03:11:01;;;;;;;5.65;2.00;;;;;;;-1.81;86.24;100655.31;7395262;19;20086;-71
2023/03/12 03:13:33;;;;;;;2.80;1.77;;;;;;;-1.81;85.50;100653.63;7395483;19;20367;-71
2023/03/12 03:16:03;;;;;;;8.10;2.00;;;;;;;-1.80;86.82;100657.06;7396055;19;20415;-71
2023/03/12 03:18:32;;;;;;;7.15;1.90;;;;;;;-1.78;86.49;100667.38;7395693;19;20028;-71
2023/03/12 03:21:03;;;;;;;3.08;2.35;;;;;;;-1.76;86.21;100663.16;7394991;19;20093;-71
2023/03/12 03:23:31;;;;;;;5.05;2.50;;;;;;;-1.75;86.46;100659.75;7395735;19;20387;-71
2023/03/12 03:26:00;;;;;;;4.18;1.60;;;;;;;-1.78;87.23;100660.56;7397305;19;20094;-71
2023/03/12 03:28:32;;;;;;;6.82;2.60;;;;;;;-1.74;86.44;100661.50;7395412;19;20077;-71
2023/03/12 03:31:01;;;;;;;4.28;1.92;;;;;;;-1.74;86.62;100667.50;7396192;19;20027;-71
2023/03/12 03:33:30;;;;;;;3.70;1.75;;;;;;;-1.74;86.99;100664.94;7394227;19;20018;-71
2023/03/12 03:36:00;;;;;;;5.15;1.80;;;;;;;-1.74;86.62;100666.66;7395802;19;20086;-71
2023/03/12 03:38:30;;;;;;;5.03;1.83;;;;;;;-1.76;85.58;100665.72;7396324;19;20006;-71
2023/03/12 03:40:59;;;;;;;8.80;1.98;;;;;;;-1.76;85.86;100668.31;7395655;19;20029;-71
2023/03/12 03:43:28;;;;;;;3.28;1.80;;;;;;;-1.77;86.78;100664.84;7395039;19;20074;-71
2023/03/12 03:46:04;;;;;;;4.65;2.08;;;;;;;-1.80;86.68;100668.19;7395336;19;20015;-71
2023/03/12 03:48:33;;;;;;;6.82;2.53;;;;;;;-1.80;87.61;100675.06;7393431;19;20537;-71
2023/03/12 03:51:02;;;;;;;6.20;2.25;;;;;;;-1.82;87.71;100674.13;7393279;19;20074;-71
2023/03/12 03:53:30;;;;;;;5.10;1.55;;;;;;;-1.84;88.72;100673.25;7392462;19;20014;-71
2023/03/12 03:55:59;;;;;;;4.65;1.80;;;;;;;-1.86;89.60;100687.75;7392953;19;20079;-71
2023/03/12 03:58:28;;;;;;;4.72;2.22;;;;;;;-1.88;89.81;100685.13;7393497;19;20018;-71
2023/03/12 04:00:56;;;;;;;6.70;2.17;;;;;;;-1.90;89.21;100691.06;7396012;19;20018;-71
2023/03/12 04:03:27;;;;;;;4.18;2.10;;;;;;;-2.04;89.52;100681.25;7393401;19;20070;-70
2023/03/12 04:05:57;;;;;;;11.45;3.03;;;;;;;-1.94;90.56;100700.38;7394346;19;20035;-71
2023/03/12 04:08:25;;;;;;;5.80;2.28;;;;;;;-1.95;90.72;100693.50;7397234;19;20086;-71
2023/03/12 04:10:54;;;;;;;6.07;2.35;;;;;;;-1.93;90.94;100698.66;7401660;19;20022;-71
2023/03/12 04:13:23;;;;;;;5.68;2.83;;;;;;;-1.93;91.08;100704.72;7400346;19;20162;-72
2023/03/12 04:15:54;;;;;;;5.22;2.45;;;;;;;-1.93;90.39;100694.44;7402323;19;20070;-71
2023/03/12 04:18:22;;;;;;;4.78;2.33;;;;;;;-1.92;90.55;100697.84;7399703;19;20081;-70
2023/03/12 04:20:53;;;;;;;2.85;2.28;;;;;;;-1.91;91.01;100699.59;7398704;19;20022;-71
2023/03/12 04:23:22;;;;;;;2.67;1.85;;;;;;;-1.89;90.06;100703.09;7401289;19;20078;-71
2023/03/12 04:25:50;;;;;;;3.95;2.33;;;;;;;-1.89;89.92;100695.38;7400851;19;20553;-71
2023/03/12 04:28:19;;;;;;;6.43;2.25;;;;;;;-1.87;89.19;100704.88;7398619;19;20078;-70
2023/03/12 04:30:47;;;;;;;6.57;2.53;;;;;;;-1.85;89.32;100703.22;7400841;19;20439;-70
2023/03/12 04:33:15;;;;;;;4.70;2.00;;;;;;;-1.82;90.16;100708.47;7398440;19;20070;-71
2023/03/12 04:35:54;;;;;;;4.68;2.17;;;;;;;-1.78;89.84;100695.66;7401045;19;20151;-70
2023/03/12 04:38:25;;;;;;;2.80;2.20;;;;;;;-1.77;88.23;100702.56;7401536;19;20093;-70
2023/03/12 04:41:00;;;;;;;6.68;2.53;;;;;;;-1.75;87.66;100706.06;7400642;19;20014;-71
2023/03/12 04:43:29;;;;;;;4.72;2.25;;;;;;;-1.72;87.60;100706.13;7398084;19;20019;-71
2023/03/12 04:45:58;;;;;;;7.63;1.80;;;;;;;-1.69;88.95;100704.53;7398584;19;20523;-70
2023/03/12 04:48:27;;;;;;;5.88;2.22;;;;;;;-1.66;89.57;100711.44;7398136;19;20090;-70
2023/03/12 04:50:59;;;;;;;6.15;2.20;;;;;;;-1.64;89.79;100715.81;7400829;19;20541;-70
2023/03/12 04:53:27;;;;;;;5.22;2.30;;;;;;;-1.59;89.31;100712.47;7400144;19;20078;-70
2023/03/12 04:55:56;;;;;;;3.78;1.67;;;;;;;-1.57;88.67;100716.84;7398058;19;20019;-70
2023/03/12 04:58:25;;;;;;;2.38;1.63;;;;;;;-1.54;88.56;100716.94;7400046;19;20541;-70
2023/03/12 05:00:53;;;;;;;3.08;1.60;;;;;;;-1.51;88.01;100717.00;7397816;19;20086;-70
2023/03/12 05:03:28;;;;;;;8.02;2.47;;;;;;;-1.47;89.00;100723.13;7397858;19;20576;-70
2023/03/12 05:05:59;;;;;;;6.15;2.25;;;;;;;-1.42;88.57;100718.09;7400715;19;20054;-71
2023/03/12 05:08:28;;;;;;;3.92;1.63;;;;;;;-1.40;88.56;100726.72;7400966;19;20094;-71
2023/03/12 05:10:56;;;;;;;3.28;1.55;;;;;;;-1.36;88.69;100726.00;7397810;19;20086;-70
2023/03/12 05:13:24;;;;;;;4.05;2.17;;;;;;;-1.34;87.77;100719.16;7397143;19;20158;-72
2023/03/12 05:15:53;;;;;;;2.17;1.85;;;;;;;-1.33;88.88;100726.94;7400031;19;20081;-70
2023/03/12 05:18:22;;;;;;;4.53;1.90;;;;;;;-1.32;87.82;100722.66;7396760;19;20086;-70
2023/03/12 05:21:02;;;;;;;5.07;2.05;;;;;;;-1.40;87.06;100711.28;7399333;19;20514;-71
2023/03/12 05:23:31;;;;;;;4.93;1.70;;;;;;;-1.33;85.76;100728.63;7399759;19;20087;-70
2023/03/12 05:26:00;;;;;;;7.95;2.63;;;;;;;-1.38;86.50;100719.91;7398130;19;20502;-70
2023/03/12 05:28:29;;;;;;;2.67;1.70;;;;;;;-1.38;86.49;100727.63;7397743;19;20022;-70
2023/03/12 05:30:58;;;;;;;2.58;1.63;;;;;;;-1.51;86.33;100708.44;7398176;19;20074;-70
2023/03/12 05:33:27;;;;;;;3.60;1.70;;;;;;;-1.44;86.02;100714.59;7399814;19;20083;-70
2023/03/12 05:35:56;;;;;;;4.82;1.52;;;;;;;-1.61;86.87;100694.44;7400357;19;20079;-70
2023/03/12 05:38:27;;;;;;;2.05;1.40;;;;;;;-1.49;86.45;100709.34;7399499;19;20082;-70
2023/03/12 05:40:58;;;;;;;3.55;1.85;;;;;;;-1.51;86.49;100719.56;7400377;19;20485;-71
2023/03/12 05:43:27;;;;;;;3.50;1.83;;;;;;;-1.55;87.12;100715.19;7399074;19;20043;-71
2023/03/12 05:45:55;;;;;;;5.75;2.30;;;;;;;-1.56;87.09;100717.72;7396863;19;20027;-71
2023/03/12 05:48:24;;;;;;;4.70;2.42;;;;;;;-1.60;87.67;100716.75;7400288;19;20078;-70
2023/03/12 05:50:52;;;;;;;2.90;2.13;;;;;;;-1.63;87.93;100716.69;7397897;19;20050;-71
2023/03/12 05:53:21;;;;;;;2.63;2.22;;;;;;;-1.67;88.34;100718.31;7396492;19;20529;-71
2023/03/12 05:55:52;;;;;;;3.95;2.08;;;;;;;-1.71;88.91;100719.03;7399206;19;20094;-71
2023/03/12 05:58:20;;;;;;;6.30;2.58;;;;;;;-1.82;89.29;100711.03;7397046;19;20082;-71
2023/03/12 06:00:49;;;;;;;7.03;2.40;;;;;;;-1.80;89.77;100716.22;7398795;19;20041;-70
2023/03/12 06:03:17;;;;;;;8.55;3.25;;;;;;;-1.77;89.90;100725.72;7398513;19;20082;-70
2023/03/12 06:05:47;;;;;;;3.78;2.35;;;;;;;-1.78;89.74;100729.09;7396607;19;20014;-70
2023/03/12 06:08:17;;;;;;;4.78;2.67;;;;;;;-1.81;89.92;100728.22;7396632;19;20014;-70
2023/03/12 06:10:46;;;;;;;6.22;2.60;;;;;;;-1.84;89.89;100724.69;7398878;19;20022;-70
2023/03/12 06:13:17;;;;;;;7.15;2.92;;;;;;;-1.85;90.20;100721.22;7397639;19;20498;-71
2023/03/12 06:15:46;;;;;;;7.88;2.55;;;;;;;-1.85;89.85;100720.34;7395606;19;20014;-71
2023/03/12 06:18:14;;;;;;;4.95;2.83;;;;;;;-1.87;89.22;100719.44;7396476;19;20081;-71
2023/03/12 06:20:43;;;;;;;7.35;3.38;;;;;;;-1.89;88.17;100729.69;7395974;19;20046;-69
2023/03/12 06:23:11;;;;;;;6.30;2.80;;;;;;;-1.88;89.34;100720.28;7397402;19;20031;-71
2023/03/12 06:25:40;;;;;;;5.50;3.03;;;;;;;-1.88;88.56;100728.00;7397745;19;20510;-71
2023/03/12 06:28:33;;;;;;;5.40;2.50;;;;;;;-1.90;88.57;100733.06;7399000;19;20366;-70
2023/03/12 06:31:01;;;;;;;7.68;2.45;;;;;;;-1.89;88.07;100734.81;7397364;19;20036;-71
2023/03/12 06:33:30;;;;;;;4.18;2.25;;;;;;;-1.88;88.44;100735.72;7398473;19;20027;-70
2023/03/12 06:36:00;;;;;;;4.53;1.90;;;;;;;-1.87;88.96;100742.56;7396519;19;20023;-70
2023/03/12 06:38:29;;;;;;;5.30;2.35;;;;;;;-1.86;88.64;100737.50;7399324;19;20082;-70
2023/03/12 06:40:59;;;;;;;5.55;2.50;;;;;;;-1.85;88.04;100736.66;7397426;19;20019;-70
2023/03/12 06:43:29;;;;;;;5.80;2.28;;;;;;;-1.84;88.54;100733.25;7398107;19;20027;-69
2023/03/12 06:46:01;;;;;;;6.35;2.30;;;;;;;-1.82;87.92;100735.84;7397153;19;20078;-70
2023/03/12 06:48:40;;;;;;;5.68;2.20;;;;;;;-1.80;86.58;100732.50;7396128;19;20098;-71
2023/03/12 06:51:09;;;;;;;8.30;2.22;;;;;;;-1.77;86.92;100736.00;7397921;19;20395;-71
2023/03/12 06:53:37;;;;;;;4.90;1.90;;;;;;;-1.72;87.90;100739.56;7395944;19;20019;-70
2023/03/12 06:56:07;;;;;;;3.58;2.30;;;;;;;-1.69;88.11;100742.25;7395925;19;20039;-71
2023/03/12 06:58:36;;;;;;;4.03;2.15;;;;;;;-1.67;87.04;100741.47;7397266;19;20430;-71
2023/03/12 07:01:07;;;;;;;5.32;2.28;;;;;;;-1.64;86.69;100746.69;7397481;19;20502;-70
2023/03/12 07:03:36;;;;;;;4.00;2.75;;;;;;;-1.62;86.81;100739.00;7397232;19;20093;-70
2023/03/12 07:06:05;;;;;;;5.13;2.60;;;;;;;-1.57;85.94;100752.00;7395893;19;20078;-70
2023/03/12 07:08:33;;;;;;;6.70;3.05;;;;;;;-1.52;87.80;100750.41;7396984;19;20047;-70
2023/03/12 07:11:02;;;;;;;4.97;2.88;;;;;;;-1.55;86.95;100734.91;7395760;19;20035;-71
2023/03/12 07:13:37;;;;;;;6.07;2.60;;;;;;;-1.45;86.88;100748.88;7395143;19;20042;-70
2023/03/12 07:16:09;;;;;;;6.30;2.78;;;;;;;-1.44;88.39;100748.94;7395625;19;20015;-71
2023/03/12 07:18:38;;;;;;;4.30;2.55;;;;;;;-1.46;88.00;100744.59;7395454;19;20015;-70
2023/03/12 07:21:07;;;;;;;5.25;2.38;;;;;;;-1.35;87.55;100761.19;7395566;19;20088;-71
2023/03/12 07:23:36;;;;;;;5.13;3.20;;;;;;;-1.31;88.13;100761.31;7394841;19;20014;-70
2023/03/12 07:26:06;;;;;;;14.25;4.32;;;;;;;-1.27;87.27;100767.41;7394994;19;20086;-71
2023/03/12 07:28:34;;;;;;;8.75;3.65;;;;;;;-1.21;88.29;100769.28;7396001;19;20019;-71
2023/03/12 07:31:03;;;;;;;7.60;3.10;;;;;;;-1.18;86.24;100762.50;7397232;19;20073;-70
2023/03/12 07:33:35;;;;;;;4.93;3.00;;;;;;;-1.18;86.88;100751.34;7396183;19;20025;-72
2023/03/12 07:36:04;;;;;;;4.55;3.38;;;;;;;-1.05;87.65;100765.41;7397269;19;20019;-73
2023/03/12 07:38:32;;;;;;;4.88;3.22;;;;;;;-0.97;87.96;100766.47;7395341;19;20038;-70
2023/03/12 07:41:01;;;;;;;9.45;3.70;;;;;;;-0.90;87.62;100758.06;7394746;19;20027;-71
2023/03/12 07:43:30;;;;;;;7.10;4.05;;;;;;;-0.82;87.13;100753.97;7399611;19;20014;-69
2023/03/12 07:45:58;;;;;;;6.43;3.70;;;;;;;-0.71;88.11;100749.09;7404697;19;20078;-71
2023/03/12 07:48:27;;;;;;;7.45;4.40;;;;;;;-0.61;87.96;100747.59;7401233;19;20022;-71
2023/03/12 07:50:58;;;;;;;7.22;3.95;;;;;;;-0.51;86.98;100748.69;7400977;19;20077;-71
2023/03/12 07:53:26;;;;;;;5.25;4.13;;;;;;;-0.43;87.01;100748.88;7404008;19;20031;-70
2023/03/12 07:55:56;;;;;;;7.20;4.60;;;;;;;-0.36;87.53;100748.19;7401983;19;20550;-72
2023/03/12 07:58:25;;;;;;;9.43;4.65;;;;;;;-0.29;87.65;100744.03;7401199;19;20018;-71
2023/03/12 08:00:53;;;;;;;8.23;4.28;;;;;;;-0.23;87.65;100739.91;7401004;19;20482;-70
2023/03/12 08:03:22;;;;;;;14.45;7.00;;;;;;;-0.20;88.12;100736.53;7401381;19;20023;-71
2023/03/12 08:06:01;;;;;;;10.70;4.63;;;;;;;-0.12;83.22;100747.88;7403770;19;20473;-70
2023/03/12 08:08:30;;;;;;;12.02;5.30;;;;;;;-0.05;85.95;100743.69;7404623;19;20024;-71
2023/03/12 08:10:59;;;;;;;8.65;4.50;;;;;;;-0.03;87.08;100744.63;7403583;19;20427;-70
2023/03/12 08:13:28;;;;;;;9.10;3.70;;;;;;;0.07;87.50;100754.28;7402151;19;20025;-71
2023/03/12 08:15:57;;;;;;;5.30;3.53;;;;;;;0.13;87.61;100748.41;7400306;19;20070;-70
2023/03/12 08:18:26;;;;;;;6.18;3.70;;;;;;;0.19;88.35;100751.13;7398775;19;20074;-69
2023/03/12 08:20:55;;;;;;;6.57;4.07;;;;;;;0.25;87.33;100745.19;7406909;19;20492;-70
2023/03/12 08:23:26;;;;;;;7.20;4.28;;;;;;;0.33;87.02;100746.25;7404058;19;20040;-71
2023/03/12 08:25:55;;;;;;;9.13;3.88;;;;;;;0.37;86.95;100744.56;7402131;19;20087;-70
2023/03/12 08:28:25;;;;;;;8.27;4.18;;;;;;;0.45;85.43;100751.63;7400642;19;20091;-71
2023/03/12 08:30:56;;;;;;;8.10;4.00;;;;;;;0.52;86.76;100751.75;7399909;19;20022;-70
2023/03/12 08:33:25;;;;;;;7.35;3.40;;;;;;;0.64;83.86;100755.47;7399485;19;20506;-70
2023/03/12 08:35:53;;;;;;;7.85;3.30;;;;;;;0.74;85.15;100758.19;7399493;19;20011;-70
2023/03/12 08:38:22;;;;;;;7.00;3.30;;;;;;;0.83;85.96;100758.34;7400094;19;20070;-71
2023/03/12 08:40:59;;;;;;;8.88;3.40;;;;;;;0.87;86.38;100754.13;7402593;19;20561;-71
2023/03/12 08:43:29;;;;;;;5.57;3.10;;;;;;;0.97;86.45;100754.34;7399317;19;20515;-70
2023/03/12 08:45:58;;;;;;;9.32;4.30;;;;;;;1.02;86.00;100751.81;7402403;19;20039;-69
2023/03/12 08:48:27;;;;;;;5.55;3.50;;;;;;;1.08;84.47;100749.34;7400368;19;20131;-70
2023/03/12 08:50:57;;;;;;;5.60;3.10;;;;;;;1.16;85.96;100749.47;7399716;19;20018;-71
2023/03/12 08:53:26;;;;;;;7.20;3.65;;;;;;;1.24;86.32;100747.00;7398074;19;20025;-72
2023/03/12 08:55:55;;;;;;;6.63;3.30;;;;;;;1.31;84.72;100743.69;7399621;19;20014;-70
2023/03/12 08:58:27;;;;;;;5.82;3.10;;;;;;;1.37;87.04;100733.44;7400009;19;20018;-71
2023/03/12 09:00:57;;;;;;;6.65;3.45;;;;;;;1.44;86.21;100736.97;7400243;19;20022;-71
2023/03/12 09:03:26;;;;;;;7.43;3.40;;;;;;;1.50;86.40;100744.84;7402587;19;20022;-71
2023/03/12 09:06:09;;;;;;;6.65;3.97;;;;;;;1.53;85.20;100741.44;7402504;19;20023;-71
2023/03/12 09:08:37;;;;;;;4.82;3.40;;;;;;;1.63;85.69;100743.28;7400030;19;20024;-71
2023/03/12 09:11:06;;;;;;;10.70;4.28;;;;;;;1.69;85.57;100745.97;7401304;19;20074;-71
2023/03/12 09:13:38;;;;;;;5.13;3.60;;;;;;;1.75;85.74;100740.91;7400513;19;20089;-72
2023/03/12 09:16:07;;;;;;;6.95;2.83;;;;;;;1.82;83.94;100746.16;7399044;19;20074;-71
2023/03/12 09:18:36;;;;;;;4.43;2.97;;;;;;;1.87;85.32;100740.22;7397770;19;20023;-72
2023/03/12 09:21:05;;;;;;;8.38;2.80;;;;;;;1.97;84.67;100737.75;7398067;19;20478;-70
2023/03/12 09:23:34;;;;;;;9.45;2.80;;;;;;;2.04;79.96;100747.34;7398345;19;20082;-71
2023/03/12 09:26:02;;;;;;;4.57;2.90;;;;;;;2.11;83.11;100742.25;7400675;19;20094;-71
2023/03/12 09:28:31;;;;;;;4.32;2.38;;;;;;;2.21;84.97;100739.78;7398332;19;20074;-72
2023/03/12 09:31:03;;;;;;;6.50;3.05;;;;;;;2.27;83.77;100742.44;7399968;19;20022;-71
2023/03/12 09:33:32;;;;;;;3.97;2.78;;;;;;;2.34;85.25;100739.09;7399970;19;20474;-71
2023/03/12 09:36:02;;;;;;;4.60;3.35;;;;;;;2.40;81.78;100735.69;7398055;19;20014;-71
2023/03/12 09:38:34;;;;;;;9.15;3.40;;;;;;;2.46;84.88;100740.94;7399509;19;20014;-70
2023/03/12 09:41:04;;;;;;;11.63;3.60;;;;;;;2.49;84.52;100725.47;7400357;19;20022;-71
2023/03/12 09:43:39;;;;;;;9.52;3.45;;;;;;;2.60;83.31;100728.16;7397305;19;20089;-71
2023/03/12 09:46:14;;;;;;;;;;;;;;;2.67;82.50;100729.09;7398007;19;20545;-71
2023/03/12 09:48:43;;;;;;;5.85;2.80;;;;;;;2.72;84.35;100723.09;7399403;19;19986;-71
2023/03/12 09:51:21;;;;;;;7.03;4.47;;;;;;;2.77;83.43;100726.59;7398929;19;20014;-71
2023/03/12 09:53:55;;;;;;;10.20;5.70;;;;;;;2.81;82.85;100727.50;7400328;19;20018;-71
2023/03/12 09:56:25;;;;;;;8.48;3.90;;;;;;;2.86;83.64;100728.41;7397216;19;20018;-71
2023/03/12 09:58:54;;;;;;;6.70;2.90;;;;;;;2.89;82.93;100719.81;7397965;19;20090;-71
2023/03/12 10:01:38;;;;;;;4.90;3.05;;;;;;;2.93;77.78;100718.97;7400377;19;20019;-71
2023/03/12 10:04:35;;;;;;;7.57;3.30;;;;;;;3.02;81.70;100711.28;7398558;19;20018;-71
2023/03/12 10:07:11;;;;;;;11.45;3.60;;;;;;;3.06;83.93;100702.69;7399415;19;20077;-71
2023/03/12 10:09:56;;;;;;;6.40;2.65;;;;;;;3.12;83.83;100696.66;7399711;19;20495;-71
2023/03/12 10:12:34;;;;;;;8.55;3.13;;;;;;;3.21;83.37;100708.84;7400877;19;20098;-71
2023/03/12 10:15:16;;;;;;;5.32;2.83;;;;;;;3.27;81.44;100695.91;7396897;19;20091;-71
2023/03/12 10:18:00;;;;;;;8.43;3.20;;;;;;;3.35;80.81;100695.97;7397186;19;20010;-71
2023/03/12 10:20:50;;;;;;;6.07;3.13;;;;;;;3.44;73.14;100683.09;7397226;19;20027;-71
2023/03/12 10:23:27;;;;;;;5.93;3.10;;;;;;;3.54;74.20;100684.88;7397190;19;20031;-71
2023/03/12 10:26:00;;;;;;;5.43;2.67;;;;;;;3.65;79.47;100679.78;7396586;19;20486;-71
2023/03/12 10:28:34;;;;;;;8.45;3.00;;;;;;;3.72;76.97;100676.31;7396359;19;20521;-71
2023/03/12 10:31:04;;;;;;;;;;;;;;;3.78;69.80;100682.41;7397393;19;20481;-71
2023/03/12 10:33:44;;;;;;;8.90;3.72;;;;;;;3.89;80.50;100680.72;7397568;19;19978;-71
2023/03/12 10:36:19;;;;;;;6.63;3.90;;;;;;;3.98;78.42;100674.72;7396219;19;20022;-71
2023/03/12 10:38:49;;;;;;;9.13;3.78;;;;;;;4.07;81.81;100675.63;7399103;19;20028;-71
2023/03/12 10:41:20;;;;;;;10.88;5.03;;;;;;;4.13;79.35;100677.38;7399000;19;20541;-70
2023/03/12 10:43:48;;;;;;;6.32;3.05;;;;;;;4.18;78.15;100674.78;7397428;19;20039;-71
2023/03/12 10:46:48;;;;;;;5.28;3.60;;;;;;;4.20;71.75;100670.47;7396680;19;20018;-71
2023/03/12 10:49:32;;;;;;;6.68;3.47;;;;;;;4.26;69.72;100674.81;7397496;19;20505;-70
2023/03/12 10:52:03;;;;;;;5.32;3.70;;;;;;;4.30;76.16;100664.44;7395752;19;20078;-70
2023/03/12 10:54:35;;;;;;;7.93;3.53;;;;;;;4.35;75.03;100670.53;7396654;19;20015;-70
2023/03/12 10:57:03;;;;;;;6.15;3.92;;;;;;;4.38;74.82;100660.13;7395727;19;20545;-71
2023/03/12 10:59:35;;;;;;;10.77;5.20;;;;;;;4.34;77.29;100653.19;7397618;19;20031;-74
2023/03/12 11:02:25;;;;;;;10.63;4.28;;;;;;;4.44;77.90;100654.09;7395808;19;20035;-70
2023/03/12 11:04:56;;;;;;;10.65;5.00;;;;;;;4.61;77.69;100656.72;7396304;19;20091;-70
2023/03/12 11:07:26;;;;;;;5.65;3.30;;;;;;;4.72;78.60;100649.78;7395713;19;20011;-69
2023/03/12 11:10:24;;;;;;;7.25;3.60;;;;;;;4.90;71.23;100640.25;7395975;19;20015;-69
2023/03/12 11:12:57;;;;;;;7.07;4.13;;;;;;;5.08;75.90;100629.00;7394575;19;20090;-70
2023/03/12 11:15:40;;;;;;;5.25;3.90;;;;;;;5.22;68.73;100635.06;7394678;19;20006;-69
2023/03/12 11:18:31;;;;;;;9.18;4.45;;;;;;;5.29;73.12;100615.09;7394826;19;20011;-70
2023/03/12 11:21:17;;;;;;;5.75;3.45;;;;;;;5.39;63.54;100621.16;7398171;19;20015;-70
2023/03/12 11:23:48;;;;;;;7.75;3.55;;;;;;;5.47;73.16;100621.13;7396174;19;20034;-70
2023/03/12 11:26:21;;;;;;;6.00;3.88;;;;;;;5.52;72.79;100614.16;7397316;19;20035;-71
2023/03/12 11:28:52;;;;;;;9.55;5.10;;;;;;;5.58;74.50;100608.94;7398270;19;20041;-70
2023/03/12 11:31:27;;;;;;;10.75;6.60;;;;;;;5.65;70.65;100599.38;7395720;19;20018;-71
2023/03/12 11:34:01;;;;;;;8.48;4.22;;;;;;;5.69;70.00;100598.50;7394613;19;20541;-70
2023/03/12 11:36:45;;;;;;;7.90;5.07;;;;;;;5.73;60.53;100608.03;7399894;19;20082;-71
2023/03/12 11:39:25;;;;;;;12.20;6.40;;;;;;;5.79;63.65;100594.13;7397576;19;20087;-72
2023/03/12 11:42:08;;;;;;;4.20;2.60;;;;;;;5.76;62.04;100588.91;7396928;19;20160;-69
2023/03/12 11:44:45;;;;;;;4.38;2.60;;;;;;;5.79;63.96;100592.38;7398047;19;20030;-70
2023/03/12 11:47:34;;;;;;;5.07;3.05;;;;;;;5.88;60.24;100594.94;7396223;19;20082;-70